createdAt,value
2017-09-19T00:01:50.330Z,9.97
2017-09-19T00:04:17.861Z,10.20
2017-09-19T00:06:45.380Z,10.20
2017-09-19T00:09:12.942Z,9.73
2017-09-19T00:11:40.928Z,11.47
2017-09-19T00:14:08.456Z,10.77
2017-09-19T00:16:36.067Z,9.90
2017-09-19T00:19:03.585Z,9.73
2017-09-19T00:21:31.700Z,10.20
2017-09-19T00:23:59.266Z,11.13
2017-09-19T00:26:26.840Z,10.13
2017-09-19T00:28:54.351Z,10.30
2017-09-19T00:31:21.948Z,9.77
2017-09-19T00:33:49.528Z,10.83
2017-09-19T00:36:17.057Z,10.30
2017-09-19T00:38:44.669Z,9.73
2017-09-19T00:41:12.444Z,11.03
2017-09-19T00:43:40.020Z,10.00
2017-09-19T00:46:07.639Z,10.73
2017-09-19T00:48:35.255Z,9.80
2017-09-19T00:51:02.819Z,11.27
2017-09-19T00:53:30.482Z,10.37
2017-09-19T00:55:58.074Z,10.50
2017-09-19T00:58:25.615Z,10.43
2017-09-19T01:00:53.196Z,10.30
2017-09-19T01:03:20.718Z,10.40
2017-09-19T01:05:48.343Z,11.00
2017-09-19T01:08:15.929Z,10.87
2017-09-19T01:10:43.755Z,10.97
2017-09-19T01:13:11.901Z,11.00
2017-09-19T01:15:39.455Z,12.23
2017-09-19T01:18:07.299Z,11.87
2017-09-19T01:20:35.091Z,12.23
2017-09-19T01:23:02.667Z,11.53
2017-09-19T01:25:30.457Z,11.00
2017-09-19T01:27:58.266Z,11.47
2017-09-19T01:30:25.870Z,11.87
2017-09-19T01:32:53.410Z,11.73
2017-09-19T01:35:20.949Z,10.90
2017-09-19T01:37:48.572Z,11.50
2017-09-19T01:40:17.905Z,10.57
2017-09-19T01:42:45.673Z,10.50
2017-09-19T01:45:13.274Z,10.77
2017-09-19T01:47:41.170Z,10.67
2017-09-19T01:50:08.777Z,10.70
2017-09-19T01:52:36.383Z,10.33
2017-09-19T01:55:03.929Z,10.80
2017-09-19T01:57:31.478Z,10.13
2017-09-19T01:59:59.053Z,11.20
2017-09-19T02:02:26.677Z,10.20
2017-09-19T02:04:54.450Z,11.50
2017-09-19T02:07:22.231Z,11.90
2017-09-19T02:09:49.785Z,11.20
2017-09-19T02:12:18.256Z,10.87
2017-09-19T02:14:46.028Z,12.10
2017-09-19T02:17:13.884Z,11.73
2017-09-19T02:19:41.437Z,11.37
2017-09-19T02:22:09.007Z,11.07
2017-09-19T02:24:36.638Z,11.13
2017-09-19T02:27:04.448Z,11.13
2017-09-19T02:29:32.130Z,11.77
2017-09-19T02:31:59.758Z,11.73
2017-09-19T02:34:27.567Z,11.53
2017-09-19T02:36:55.907Z,11.20
2017-09-19T02:39:23.965Z,11.93
2017-09-19T02:41:52.341Z,11.07
2017-09-19T02:44:20.191Z,11.33
2017-09-19T02:46:47.930Z,12.17
2017-09-19T02:49:15.725Z,10.90
2017-09-19T02:51:43.504Z,11.07
2017-09-19T02:54:11.350Z,10.33
2017-09-19T02:56:39.182Z,11.10
2017-09-19T02:59:06.721Z,12.43
2017-09-19T03:01:34.341Z,10.77
2017-09-19T03:04:01.864Z,11.17
2017-09-19T03:06:29.455Z,10.93
2017-09-19T03:08:57.227Z,10.90
2017-09-19T03:11:25.951Z,10.80
2017-09-19T03:13:53.759Z,11.60
2017-09-19T03:16:22.439Z,10.63
2017-09-19T03:18:50.829Z,10.10
2017-09-19T03:21:18.682Z,11.07
2017-09-19T03:23:46.530Z,10.60
2017-09-19T03:26:14.171Z,10.00
2017-09-19T03:28:42.539Z,10.40
2017-09-19T03:31:10.361Z,10.30
2017-09-19T03:33:38.152Z,10.80
2017-09-19T03:36:06.790Z,10.20
2017-09-19T03:41:16.428Z,10.40
2017-09-19T03:43:44.122Z,11.00
2017-09-19T03:46:11.656Z,9.63
2017-09-19T03:48:39.216Z,9.50
2017-09-19T03:51:06.835Z,9.83
2017-09-19T03:53:34.426Z,10.90
2017-09-19T03:56:02.221Z,9.67
2017-09-19T03:58:30.007Z,10.10
2017-09-19T04:00:57.831Z,10.03
2017-09-19T04:03:25.421Z,10.53
2017-09-19T04:05:52.956Z,11.93
2017-09-19T04:08:20.585Z,10.73
2017-09-19T04:10:48.124Z,10.83
2017-09-19T04:13:15.925Z,11.17
2017-09-19T04:15:43.494Z,11.10
2017-09-19T04:18:11.040Z,11.53
2017-09-19T04:20:38.588Z,12.90
2017-09-19T04:23:06.172Z,11.13
2017-09-19T04:25:34.004Z,11.80
2017-09-19T04:28:01.537Z,12.50
2017-09-19T04:30:29.120Z,14.03
2017-09-19T04:32:56.868Z,12.83
2017-09-19T04:35:24.457Z,11.57
2017-09-19T04:37:52.183Z,12.10
2017-09-19T04:40:19.780Z,11.50
2017-09-19T04:42:47.388Z,13.00
2017-09-19T04:45:15.026Z,12.63
2017-09-19T04:47:42.644Z,14.03
2017-09-19T04:50:10.246Z,14.73
2017-09-19T04:52:37.997Z,14.23
2017-09-19T04:55:05.615Z,15.70
2017-09-19T04:57:33.145Z,15.77
2017-09-19T05:00:00.815Z,15.27
2017-09-19T05:02:28.422Z,17.10
2017-09-19T05:04:56.016Z,16.23
2017-09-19T05:07:25.194Z,14.80
2017-09-19T05:09:52.830Z,16.37
2017-09-19T05:12:20.368Z,14.13
2017-09-19T05:14:47.878Z,13.67
2017-09-19T05:17:16.034Z,14.40
2017-09-19T05:19:43.603Z,14.57
2017-09-19T05:22:11.190Z,14.03
2017-09-19T05:24:38.750Z,13.97
2017-09-19T05:27:07.305Z,13.70
2017-09-19T05:29:34.930Z,13.90
2017-09-19T05:32:02.624Z,13.30
2017-09-19T05:34:30.149Z,14.90
2017-09-19T05:36:57.756Z,13.87
2017-09-19T05:39:25.360Z,14.20
2017-09-19T05:41:52.904Z,14.67
2017-09-19T05:44:20.497Z,15.17
2017-09-19T05:46:48.559Z,15.07
2017-09-19T05:49:16.160Z,13.93
2017-09-19T05:51:43.690Z,15.20
2017-09-19T05:54:11.430Z,16.27
2017-09-19T05:56:39.615Z,16.93
2017-09-19T05:59:07.212Z,15.77
2017-09-19T06:01:34.796Z,16.70
2017-09-19T06:04:02.343Z,16.70
2017-09-19T06:06:29.918Z,14.90
2017-09-19T06:09:11.105Z,13.80
2017-09-19T06:11:39.599Z,14.20
2017-09-19T06:14:07.372Z,14.40
2017-09-19T06:16:35.088Z,15.70
2017-09-19T06:19:02.734Z,16.63
2017-09-19T06:21:30.539Z,15.60
2017-09-19T06:23:59.122Z,15.23
2017-09-19T06:26:26.803Z,14.53
2017-09-19T06:28:55.316Z,12.90
2017-09-19T06:31:22.926Z,10.47
2017-09-19T06:33:51.978Z,11.27
2017-09-19T06:36:19.574Z,10.03
2017-09-19T06:38:47.183Z,10.87
2017-09-19T06:41:15.095Z,9.77
2017-09-19T06:43:42.714Z,10.70
2017-09-19T06:46:10.328Z,9.40
2017-09-19T06:48:38.780Z,10.90
2017-09-19T06:51:08.394Z,10.20
2017-09-19T06:53:40.657Z,11.03
2017-09-19T06:56:15.531Z,9.20
2017-09-19T06:58:48.428Z,9.90
2017-09-19T07:22:18.546Z,9.67
2017-09-19T07:42:17.863Z,9.37
2017-09-19T07:44:51.801Z,9.30
2017-09-19T07:47:19.378Z,9.40
2017-09-19T07:49:50.775Z,9.87
2017-09-19T07:52:18.405Z,9.37
2017-09-19T07:54:46.460Z,10.23
2017-09-19T07:57:14.080Z,10.87
2017-09-19T07:59:41.716Z,9.50
2017-09-19T08:02:09.570Z,10.43
2017-09-19T08:04:37.240Z,9.10
2017-09-19T08:07:04.935Z,10.27
2017-09-19T08:09:32.617Z,9.33
2017-09-19T08:12:00.213Z,9.70
2017-09-19T08:14:27.781Z,10.63
2017-09-19T08:16:55.676Z,9.60
2017-09-19T08:19:23.351Z,10.13
2017-09-19T08:21:50.933Z,10.30
2017-09-19T08:24:19.503Z,9.43
2017-09-19T08:26:47.295Z,9.60
2017-09-19T08:29:15.895Z,10.97
2017-09-19T08:31:43.527Z,10.23
2017-09-19T08:34:11.147Z,9.77
2017-09-19T08:36:40.075Z,10.90
2017-09-19T08:39:08.465Z,10.57
2017-09-19T08:41:36.087Z,11.10
2017-09-19T08:44:03.735Z,12.23
2017-09-19T08:46:31.372Z,11.47
2017-09-19T08:48:58.984Z,10.77
2017-09-19T08:51:26.612Z,10.03
2017-09-19T08:53:54.256Z,11.27
2017-09-19T08:56:21.878Z,14.77
2017-09-19T08:58:50.032Z,10.87
2017-09-19T09:01:18.848Z,10.80
2017-09-19T09:03:46.523Z,11.13
2017-09-19T09:06:14.872Z,12.17
2017-09-19T09:08:42.837Z,11.33
2017-09-19T09:11:11.447Z,12.07
2017-09-19T09:13:39.093Z,11.80
2017-09-19T09:16:06.776Z,10.80
2017-09-19T09:18:34.358Z,11.73
2017-09-19T09:21:01.933Z,12.03
2017-09-19T09:23:29.594Z,10.40
2017-09-19T09:25:57.202Z,11.33
2017-09-19T09:28:24.836Z,10.93
2017-09-19T09:30:52.507Z,11.60
2017-09-19T09:33:20.114Z,10.70
2017-09-19T09:35:47.847Z,11.17
2017-09-19T09:38:15.548Z,11.07
2017-09-19T09:40:46.022Z,10.57
2017-09-19T09:43:16.548Z,12.20
2017-09-19T09:45:49.437Z,11.17
2017-09-19T09:48:19.359Z,11.43
2017-09-19T09:50:47.867Z,11.10
2017-09-19T09:53:16.376Z,10.77
2017-09-19T09:55:47.460Z,11.70
2017-09-19T09:58:18.353Z,10.07
2017-09-19T10:00:53.426Z,11.20
2017-09-19T10:03:28.728Z,11.17
2017-09-19T10:06:04.247Z,12.77
2017-09-19T10:08:56.027Z,11.93
2017-09-19T10:11:29.424Z,11.40
2017-09-19T10:13:57.007Z,10.63
2017-09-19T10:16:26.414Z,11.07
2017-09-19T10:18:53.976Z,10.57
2017-09-19T10:21:21.836Z,9.90
2017-09-19T10:23:49.626Z,10.07
2017-09-19T10:28:56.727Z,9.93
2017-09-19T10:31:51.291Z,10.50
2017-09-19T10:34:21.422Z,9.87
2017-09-19T10:37:17.319Z,12.53
2017-09-19T10:39:49.092Z,11.00
2017-09-19T10:42:19.063Z,11.10
2017-09-19T10:45:05.175Z,11.47
2017-09-19T11:07:13.648Z,10.57
2017-09-19T11:12:20.234Z,10.83
2017-09-19T11:18:17.893Z,10.77
2017-09-19T11:21:25.605Z,11.43
2017-09-19T11:33:59.001Z,10.57
2017-09-19T11:36:26.610Z,9.73
2017-09-19T11:38:55.683Z,10.03
2017-09-19T11:41:23.751Z,10.17
2017-09-19T11:43:51.392Z,9.67
2017-09-19T11:46:20.464Z,10.93
2017-09-19T11:48:49.686Z,9.60
2017-09-19T11:51:17.768Z,10.23
2017-09-19T11:53:45.543Z,13.47
2017-09-19T11:56:13.639Z,10.60
2017-09-19T11:58:41.210Z,10.53
2017-09-19T12:01:09.003Z,11.83
2017-09-19T12:03:36.950Z,9.40
2017-09-19T12:06:04.518Z,10.30
2017-09-19T12:08:32.975Z,12.10
2017-09-19T12:11:00.494Z,10.60
2017-09-19T12:13:28.235Z,11.53
2017-09-19T12:15:55.774Z,9.90
2017-09-19T12:18:23.566Z,10.57
2017-09-19T12:20:51.566Z,10.30
2017-09-19T12:23:19.247Z,9.80
2017-09-19T12:25:48.907Z,9.50
2017-09-19T12:28:17.102Z,10.80
2017-09-19T12:30:45.214Z,10.47
2017-09-19T12:33:13.002Z,9.97
2017-09-19T12:35:40.741Z,9.50
2017-09-19T12:38:09.280Z,9.93
2017-09-19T12:40:37.041Z,9.23
2017-09-19T12:43:04.687Z,8.63
2017-09-19T12:45:32.285Z,9.50
2017-09-19T12:47:59.909Z,8.53
2017-09-19T12:50:27.485Z,8.00
2017-09-19T12:52:55.138Z,8.40
2017-09-19T12:55:22.655Z,6.83
2017-09-19T12:57:51.124Z,7.17
2017-09-19T13:00:18.686Z,7.33
2017-09-19T13:02:46.463Z,6.40
2017-09-19T13:05:14.065Z,6.17
2017-09-19T13:07:41.670Z,7.20
2017-09-19T13:10:09.628Z,5.70
2017-09-19T13:12:37.150Z,5.43
2017-09-19T13:15:05.996Z,7.00
2017-09-19T13:17:33.514Z,5.70
2017-09-19T13:20:01.325Z,6.37
2017-09-19T13:22:28.954Z,5.50
2017-09-19T13:24:57.621Z,5.00
2017-09-19T13:27:25.436Z,4.80
2017-09-19T13:29:53.847Z,6.10
2017-09-19T13:32:33.305Z,4.73
2017-09-19T13:35:00.939Z,5.73
2017-09-19T13:37:28.968Z,5.13
2017-09-19T13:43:31.934Z,5.23
2017-09-19T13:53:08.127Z,5.27
2017-09-19T13:55:35.720Z,5.20
2017-09-19T13:58:03.698Z,5.00
2017-09-19T14:00:32.307Z,3.87
2017-09-19T14:03:00.560Z,4.37
2017-09-19T14:05:28.349Z,4.50
2017-09-19T14:07:57.078Z,4.63
2017-09-19T14:10:26.325Z,4.00
2017-09-19T14:22:04.930Z,5.40
2017-09-19T14:24:32.842Z,3.90
2017-09-19T14:27:01.192Z,4.60
2017-09-19T14:29:30.155Z,4.40
2017-09-19T14:32:13.271Z,3.40
2017-09-19T14:34:41.203Z,3.80
2017-09-19T14:37:37.547Z,4.00
2017-09-19T14:40:06.414Z,4.73
2017-09-19T14:42:35.132Z,3.67
2017-09-19T14:45:24.674Z,4.70
2017-09-19T14:47:58.407Z,4.50
2017-09-19T14:50:26.001Z,5.73
2017-09-19T14:52:53.734Z,7.03
2017-09-19T14:55:22.398Z,4.77
2017-09-19T14:57:50.071Z,5.63
2017-09-19T15:00:17.818Z,5.43
2017-09-19T15:02:46.242Z,3.60
2017-09-19T15:05:13.895Z,7.07
2017-09-19T15:07:41.567Z,4.90
2017-09-19T15:10:09.502Z,4.33
2017-09-19T15:12:37.041Z,4.50
2017-09-19T15:15:04.635Z,4.67
2017-09-19T15:17:32.226Z,4.80
2017-09-19T15:20:00.041Z,4.67
2017-09-19T15:22:27.743Z,5.20
2017-09-19T15:24:55.347Z,4.77
2017-09-19T15:27:22.960Z,4.70
2017-09-19T15:29:50.615Z,5.23
2017-09-19T15:32:18.192Z,5.50
2017-09-19T15:34:45.713Z,5.20
2017-09-19T15:37:13.275Z,5.63
2017-09-19T15:39:40.936Z,5.17
2017-09-19T15:42:08.516Z,5.60
2017-09-19T15:44:36.313Z,5.40
2017-09-19T15:47:03.908Z,6.23
2017-09-19T15:49:31.485Z,5.83
2017-09-19T15:51:59.238Z,5.17
2017-09-19T15:54:26.861Z,5.00
2017-09-19T15:56:54.751Z,5.80
2017-09-19T15:59:22.340Z,6.87
2017-09-19T16:01:50.879Z,6.73
2017-09-19T16:04:18.646Z,6.20
2017-09-19T16:06:46.264Z,6.43
2017-09-19T16:09:13.915Z,6.67
2017-09-19T16:11:41.508Z,6.00
2017-09-19T16:14:09.256Z,6.00
2017-09-19T16:16:36.944Z,6.70
2017-09-19T16:19:04.490Z,6.70
2017-09-19T16:21:32.005Z,7.43
2017-09-19T16:23:59.786Z,8.20
2017-09-19T16:26:27.416Z,9.00
2017-09-19T16:28:55.036Z,9.30
2017-09-19T16:31:22.670Z,10.77
2017-09-19T16:33:50.242Z,9.23
2017-09-19T16:36:18.401Z,9.20
2017-09-19T16:38:48.291Z,8.40
2017-09-19T16:41:15.964Z,9.40
2017-09-19T16:43:43.703Z,8.80
2017-09-19T16:46:11.790Z,11.43
2017-09-19T16:48:39.670Z,10.30
2017-09-19T16:51:08.619Z,10.23
2017-09-19T16:53:37.374Z,10.07
2017-09-19T16:56:06.837Z,12.80
2017-09-19T16:58:34.474Z,11.57
2017-09-19T17:01:05.992Z,12.93
2017-09-19T17:03:33.559Z,9.30
2017-09-19T17:06:03.048Z,10.77
2017-09-19T17:08:30.685Z,13.57
2017-09-19T17:10:58.622Z,11.43
2017-09-19T17:13:26.554Z,8.40
2017-09-19T17:15:54.826Z,8.10
2017-09-19T17:18:24.802Z,10.90
2017-09-19T17:20:55.275Z,11.50
2017-09-19T17:23:23.166Z,11.30
2017-09-19T17:25:52.024Z,9.90
2017-09-19T17:28:19.768Z,10.43
2017-09-19T17:30:49.087Z,11.60
2017-09-19T17:33:20.009Z,10.73
2017-09-19T17:35:49.516Z,11.77
2017-09-19T17:38:17.285Z,10.60
2017-09-19T17:40:45.237Z,10.40
2017-09-19T17:43:15.810Z,10.20
2017-09-19T17:45:43.355Z,7.17
2017-09-19T17:48:10.917Z,5.33
2017-09-19T17:50:38.487Z,5.50
2017-09-19T17:53:06.062Z,5.50
2017-09-19T17:55:33.836Z,5.87
2017-09-19T17:58:01.497Z,6.83
2017-09-19T18:00:29.190Z,5.47
2017-09-19T18:02:56.740Z,6.97
2017-09-19T18:05:24.297Z,6.97
2017-09-19T18:07:51.911Z,6.50
2017-09-19T18:10:19.533Z,6.00
2017-09-19T18:12:47.875Z,7.67
2017-09-19T18:15:15.515Z,5.60
2017-09-19T18:17:43.062Z,6.00
2017-09-19T18:20:10.672Z,5.87
2017-09-19T18:22:38.332Z,5.53
2017-09-19T18:25:05.973Z,5.90
2017-09-19T18:27:33.534Z,6.60
2017-09-19T18:30:01.146Z,6.07
2017-09-19T18:32:30.264Z,7.20
2017-09-19T18:34:57.801Z,7.20
2017-09-19T18:37:25.369Z,6.80
2017-09-19T18:39:52.975Z,7.13
2017-09-19T18:42:20.549Z,7.73
2017-09-19T18:44:48.126Z,7.10
2017-09-19T18:47:15.779Z,9.43
2017-09-19T18:49:43.369Z,8.47
2017-09-19T18:52:11.492Z,7.77
2017-09-19T18:54:39.704Z,7.30
2017-09-19T18:57:07.472Z,7.10
2017-09-19T18:59:35.071Z,6.83
2017-09-19T19:02:02.717Z,8.03
2017-09-19T19:04:30.246Z,8.93
2017-09-19T19:06:57.995Z,8.23
2017-09-19T19:09:25.630Z,8.93
2017-09-19T19:11:53.385Z,7.57
2017-09-19T19:14:20.977Z,8.50
2017-09-19T19:16:49.298Z,13.80
2017-09-19T19:19:17.082Z,10.73
2017-09-19T19:21:45.276Z,9.53
2017-09-19T19:24:13.435Z,7.90
2017-09-19T19:26:40.971Z,8.30
2017-09-19T19:29:08.818Z,7.60
2017-09-19T19:31:36.435Z,7.43
2017-09-19T19:34:04.048Z,7.20
2017-09-19T19:36:31.683Z,7.57
2017-09-19T19:38:59.303Z,7.67
2017-09-19T19:41:27.606Z,9.57
2017-09-19T19:43:55.219Z,10.50
2017-09-19T19:46:22.822Z,10.80
2017-09-19T19:48:50.450Z,8.00
2017-09-19T19:51:18.482Z,7.50
2017-09-19T19:53:46.133Z,8.67
2017-09-19T19:56:13.749Z,6.70
2017-09-19T19:58:41.403Z,6.47
2017-09-19T20:01:09.026Z,6.00
2017-09-19T20:03:36.635Z,5.70
2017-09-19T20:06:04.267Z,6.60
2017-09-19T20:08:32.111Z,5.70
2017-09-19T20:10:59.687Z,6.23
2017-09-19T20:13:27.833Z,5.60
2017-09-19T20:15:56.151Z,5.63
2017-09-19T20:18:23.773Z,5.10
2017-09-19T20:20:51.301Z,5.20
2017-09-19T20:23:18.964Z,5.60
2017-09-19T20:25:46.513Z,8.13
2017-09-19T20:28:14.105Z,6.07
2017-09-19T20:30:41.768Z,5.33
2017-09-19T20:33:09.360Z,5.50
2017-09-19T20:35:36.998Z,5.40
2017-09-19T20:38:04.681Z,6.00
2017-09-19T20:40:32.336Z,5.70
2017-09-19T20:42:59.925Z,5.20
2017-09-19T20:45:27.643Z,5.57
2017-09-19T20:47:55.203Z,5.43
2017-09-19T20:50:22.835Z,5.60
2017-09-19T20:52:50.447Z,5.50
2017-09-19T20:55:17.968Z,5.20
2017-09-19T20:57:45.527Z,5.73
2017-09-19T21:00:13.756Z,6.80
2017-09-19T21:02:40.742Z,6.93
2017-09-19T21:05:13.714Z,6.13
2017-09-19T21:07:46.910Z,5.70
2017-09-19T21:10:20.168Z,6.70
2017-09-19T21:12:53.242Z,6.60
2017-09-19T21:15:26.437Z,9.23
2017-09-19T21:17:59.705Z,9.77
2017-09-19T21:20:26.734Z,8.00
2017-09-19T21:22:55.246Z,9.23
2017-09-19T21:25:22.780Z,9.03
2017-09-19T21:27:50.383Z,8.77
2017-09-19T21:30:17.994Z,8.73
2017-09-19T21:32:45.675Z,7.60
2017-09-19T21:35:13.271Z,7.00
2017-09-19T21:37:40.852Z,7.30
2017-09-19T21:40:08.448Z,7.00
2017-09-19T21:42:36.014Z,5.70
2017-09-19T21:45:03.627Z,6.07
2017-09-19T21:47:31.212Z,6.20
2017-09-19T21:49:58.761Z,6.43
2017-09-19T21:52:26.330Z,5.30
2017-09-19T21:54:53.901Z,5.50
2017-09-19T21:57:21.787Z,6.43
2017-09-19T21:59:49.380Z,5.97
2017-09-19T22:02:17.007Z,6.40
2017-09-19T22:04:44.594Z,6.40
2017-09-19T22:07:12.186Z,6.30
2017-09-19T22:09:39.826Z,5.70
2017-09-19T22:12:07.431Z,5.67
2017-09-19T22:14:34.981Z,5.00
2017-09-19T22:17:02.612Z,5.40
2017-09-19T22:19:30.252Z,5.17
2017-09-19T22:21:57.867Z,5.50
2017-09-19T22:24:25.473Z,4.87
2017-09-19T22:26:53.068Z,5.60
2017-09-19T22:29:20.692Z,5.67
2017-09-19T22:31:48.355Z,5.00
2017-09-19T22:34:15.890Z,5.03
2017-09-19T22:36:43.441Z,5.03
2017-09-19T22:39:11.009Z,4.60
2017-09-19T22:41:38.602Z,5.63
2017-09-19T22:44:06.365Z,6.50
2017-09-19T22:46:33.944Z,6.40
2017-09-19T22:49:01.502Z,5.10
2017-09-19T22:51:29.035Z,6.07
2017-09-19T22:53:56.606Z,5.33
2017-09-19T22:56:24.171Z,5.43
2017-09-19T22:58:51.779Z,5.87
2017-09-19T23:01:19.377Z,5.33
2017-09-19T23:03:46.953Z,5.47
2017-09-19T23:06:14.617Z,5.20
2017-09-19T23:08:42.225Z,5.53
2017-09-19T23:11:09.815Z,5.13
2017-09-19T23:13:37.585Z,6.43
2017-09-19T23:16:05.180Z,5.43
2017-09-19T23:18:32.722Z,5.20
2017-09-19T23:21:00.342Z,5.97
2017-09-19T23:23:27.921Z,6.17
2017-09-19T23:25:55.482Z,5.57
2017-09-19T23:28:23.266Z,6.17
2017-09-19T23:30:50.913Z,6.90
2017-09-19T23:33:18.478Z,7.50
2017-09-19T23:35:46.145Z,7.80
2017-09-19T23:38:13.874Z,7.40
2017-09-19T23:40:41.547Z,7.43
2017-09-19T23:43:09.152Z,7.50
2017-09-19T23:45:36.788Z,6.90
2017-09-19T23:48:04.538Z,7.20
2017-09-19T23:50:32.174Z,7.13
2017-09-19T23:52:59.916Z,6.67
2017-09-19T23:55:27.542Z,6.13
2017-09-19T23:57:55.141Z,5.70
